Time;durP1;ratioP1;P1;durP2;ratioP2;P2;SDS_P1;SDS_P2;PMS_P1;PMS_P2;Temp;Humidity;BMP_temperature;BMP_pressure;BME280_temperature;BME280_humidity;BME280_pressure;Samples;Min_cycle;Max_cycle;Signal;HPM_P1;HPM_P2
2023/07/12 00:00:49;;;;;;;5.50;4.00;;;20.30;99.90;;;;;;4991134;28;20390;-84
2023/07/12 00:03:16;;;;;;;4.43;3.30;;;20.30;99.90;;;;;;5023930;28;20383;-84
2023/07/12 00:05:42;;;;;;;4.80;3.08;;;20.40;99.90;;;;;;5055393;22;20543;-78
2023/07/12 00:08:20;;;;;;;4.82;3.20;;;20.40;99.90;;;;;;5031178;28;20379;-77
2023/07/12 00:10:46;;;;;;;5.68;3.63;;;20.40;99.90;;;;;;5030533;28;20417;-78
2023/07/12 00:13:12;;;;;;;5.78;3.92;;;20.50;99.90;;;;;;5029684;28;20438;-78
2023/07/12 00:15:39;;;;;;;5.57;3.50;;;20.40;99.90;;;;;;5035985;28;20441;-78
2023/07/12 00:18:12;;;;;;;5.43;3.97;;;20.20;99.90;;;;;;5047540;28;20404;-78
2023/07/12 00:20:38;;;;;;;4.65;4.10;;;20.20;99.90;;;;;;5049686;28;20397;-78
2023/07/12 00:23:03;;;;;;;4.53;3.92;;;20.10;99.90;;;;;;5048807;28;20389;-76
2023/07/12 00:25:31;;;;;;;4.63;4.18;;;20.10;99.90;;;;;;5040704;28;20545;-76
2023/07/12 00:27:58;;;;;;;5.85;4.55;;;20.10;99.90;;;;;;5039106;28;20390;-78
2023/07/12 00:30:29;;;;;;;5.85;4.28;;;20.20;99.90;;;;;;5051948;28;20416;-79
2023/07/12 00:32:57;;;;;;;6.30;4.38;;;20.20;99.90;;;;;;5050308;28;20424;-80
2023/07/12 00:35:25;;;;;;;7.63;3.63;;;21.10;99.90;;;;;;5045135;28;20456;-80
2023/07/12 00:37:52;;;;;;;4.25;3.85;;;21.30;99.90;;;;;;5031364;28;20784;-80
2023/07/12 00:40:54;;;;;;;7.95;4.90;;;21.60;99.90;;;;;;5031075;28;20394;-79
2023/07/12 00:43:38;;;;;;;8.85;5.43;;;21.50;99.90;;;;;;5050233;28;20421;-79
2023/07/12 00:46:15;;;;;;;7.00;4.78;;;21.10;99.90;;;;;;5051112;28;20382;-80
2023/07/12 00:48:40;;;;;;;5.30;4.68;;;21.10;99.90;;;;;;5050708;28;20388;-80
2023/07/12 00:51:31;;;;;;;5.15;4.75;;;21.30;99.90;;;;;;5050851;28;20385;-80
2023/07/12 00:53:58;;;;;;;6.00;5.13;;;21.40;99.90;;;;;;5034374;28;20393;-79
2023/07/12 00:56:25;;;;;;;6.38;4.90;;;21.70;99.90;;;;;;5051087;28;20887;-79
2023/07/12 00:58:58;;;;;;;5.90;5.07;;;21.20;99.90;;;;;;5052790;28;20408;-79
2023/07/12 01:01:26;;;;;;;6.10;4.82;;;21.20;99.90;;;;;;5054643;28;20381;-79
2023/07/12 01:03:52;;;;;;;5.30;4.80;;;21.10;99.90;;;;;;5050959;28;20396;-79
2023/07/12 01:06:19;;;;;;;5.95;4.80;;;20.70;99.90;;;;;;5044867;28;20927;-80
2023/07/12 01:08:45;;;;;;;6.03;4.90;;;20.60;99.90;;;;;;5053894;28;20424;-80
2023/07/12 01:11:14;;;;;;;5.63;4.50;;;20.50;99.90;;;;;;5052240;28;20389;-79
2023/07/12 01:13:44;;;;;;;5.60;5.10;;;20.50;99.90;;;;;;5052039;28;20386;-79
2023/07/12 01:16:12;;;;;;;8.23;5.03;;;20.50;99.90;;;;;;5050112;28;20401;-80
2023/07/12 01:18:38;;;;;;;7.15;5.00;;;20.50;99.90;;;;;;5043611;28;20403;-79
2023/07/12 01:21:24;;;;;;;7.88;5.90;;;20.50;99.90;;;;;;5032167;28;20422;-79
2023/07/12 01:23:50;;;;;;;6.00;5.40;;;20.50;99.90;;;;;;5031322;28;20391;-79
2023/07/12 01:26:24;;;;;;;6.07;5.47;;;20.40;99.90;;;;;;5031392;28;20794;-80
2023/07/12 01:28:54;;;;;;;6.97;5.30;;;20.40;99.90;;;;;;5037591;28;20962;-80
2023/07/12 01:31:20;;;;;;;5.10;4.60;;;20.40;99.90;;;;;;5048841;28;20397;-80
2023/07/12 01:33:45;;;;;;;9.23;5.15;;;20.40;99.90;;;;;;5054717;28;20381;-80
2023/07/12 01:36:11;;;;;;;7.00;5.90;;;20.50;99.90;;;;;;5053475;28;20398;-80
2023/07/12 01:38:37;;;;;;;7.65;5.30;;;20.40;99.90;;;;;;5053577;28;20483;-81
2023/07/12 01:41:02;;;;;;;8.43;5.00;;;20.40;99.90;;;;;;5042667;28;20395;-80
2023/07/12 01:43:28;;;;;;;6.72;5.38;;;20.40;99.90;;;;;;5034789;28;20748;-80
2023/07/12 01:45:54;;;;;;;8.35;5.22;;;20.40;99.90;;;;;;5034680;28;20391;-80
2023/07/12 01:48:19;;;;;;;6.93;4.90;;;20.30;99.90;;;;;;5033659;28;20387;-81
2023/07/12 01:50:45;;;;;;;8.10;4.70;;;20.30;99.90;;;;;;5041090;28;20522;-80
2023/07/12 01:53:10;;;;;;;8.03;5.10;;;20.30;99.90;;;;;;5054307;28;20385;-80
2023/07/12 01:55:36;;;;;;;6.50;4.80;;;20.20;99.90;;;;;;5052825;28;20921;-79
2023/07/12 01:58:01;;;;;;;6.20;4.90;;;20.20;99.90;;;;;;5054898;28;20421;-80
2023/07/12 02:00:27;;;;;;;7.00;4.90;;;20.20;99.90;;;;;;5045903;28;20418;-79
2023/07/12 02:02:53;;;;;;;6.07;5.50;;;20.10;99.90;;;;;;5034333;28;20391;-80
2023/07/12 02:05:18;;;;;;;12.07;5.70;;;20.10;99.90;;;;;;5034345;28;20769;-80
2023/07/12 02:07:44;;;;;;;6.50;5.50;;;20.20;99.90;;;;;;5035315;28;20399;-81
2023/07/12 02:10:17;;;;;;;6.75;5.55;;;20.20;99.90;;;;;;5054503;28;20408;-80
2023/07/12 02:12:43;;;;;;;8.25;5.25;;;20.20;99.90;;;;;;5054368;28;20385;-79
2023/07/12 02:15:11;;;;;;;5.57;4.97;;;20.20;99.90;;;;;;5052739;28;20433;-79
2023/07/12 02:17:37;;;;;;;7.13;5.30;;;20.20;99.90;;;;;;5053867;28;20759;-81
2023/07/12 02:20:04;;;;;;;6.03;5.40;;;20.10;99.90;;;;;;5034045;28;20399;-80
2023/07/12 02:22:33;;;;;;;6.93;5.97;;;20.10;99.90;;;;;;5047890;28;20397;-80
2023/07/12 02:24:58;;;;;;;8.47;5.20;;;20.10;99.90;;;;;;5054106;28;20909;-80
2023/07/12 02:27:25;;;;;;;6.13;5.20;;;20.10;99.90;;;;;;5051748;28;20389;-80
2023/07/12 02:29:51;;;;;;;7.63;5.60;;;20.20;99.90;;;;;;5034011;28;20399;-80
2023/07/12 02:32:16;;;;;;;8.50;5.90;;;20.20;99.90;;;;;;5044034;28;20398;-81
2023/07/12 02:34:42;;;;;;;9.15;5.80;;;20.20;99.90;;;;;;5054293;28;20469;-80
2023/07/12 02:37:08;;;;;;;6.10;5.50;;;20.20;99.90;;;;;;5054269;28;20991;-80
2023/07/12 02:39:33;;;;;;;5.70;5.20;;;20.20;99.90;;;;;;5055677;28;20381;-80
2023/07/12 02:41:59;;;;;;;7.45;5.80;;;20.20;99.90;;;;;;5044872;28;20403;-81
2023/07/12 02:44:25;;;;;;;6.90;6.20;;;20.30;99.90;;;;;;5034532;28;20392;-81
2023/07/12 02:46:51;;;;;;;9.80;5.83;;;20.30;99.90;;;;;;5034907;28;20437;-81
2023/07/12 02:49:16;;;;;;;6.77;5.30;;;20.30;99.90;;;;;;5034406;28;20383;-80
2023/07/12 02:51:43;;;;;;;5.70;5.10;;;20.30;99.90;;;;;;5041338;28;20398;-80
2023/07/12 02:54:08;;;;;;;8.23;5.97;;;20.30;99.90;;;;;;5055637;28;20385;-81
2023/07/12 02:56:34;;;;;;;10.20;6.03;;;20.20;99.90;;;;;;5053693;28;20558;-80
2023/07/12 02:58:59;;;;;;;7.03;5.60;;;20.20;99.90;;;;;;5053626;28;20397;-79
2023/07/12 03:01:25;;;;;;;7.57;6.13;;;20.20;99.90;;;;;;5045661;28;20460;-81
2023/07/12 03:03:52;;;;;;;7.47;5.43;;;20.20;99.90;;;;;;5036078;28;20869;-80
2023/07/12 03:06:18;;;;;;;7.65;5.47;;;20.30;99.90;;;;;;5034643;28;20399;-80
2023/07/12 03:08:44;;;;;;;6.70;5.80;;;20.30;99.90;;;;;;5035980;28;20924;-81
2023/07/12 03:11:09;;;;;;;8.80;6.50;;;20.40;99.90;;;;;;5042602;28;20910;-80
2023/07/12 03:13:35;;;;;;;7.28;6.07;;;20.40;99.90;;;;;;5056962;28;20381;-81
2023/07/12 03:16:05;;;;;;;7.67;5.90;;;20.40;99.90;;;;;;5041117;28;20399;-80
2023/07/12 03:18:31;;;;;;;6.00;5.43;;;20.40;99.90;;;;;;5036931;28;20387;-81
2023/07/12 03:21:05;;;;;;;6.57;5.97;;;20.40;99.90;;;;;;5036556;28;20383;-81
2023/07/12 03:23:32;;;;;;;6.25;5.72;;;20.40;99.90;;;;;;5037168;28;20407;-80
2023/07/12 03:25:58;;;;;;;9.88;6.72;;;20.40;99.90;;;;;;5049103;28;20401;-81
2023/07/12 03:28:25;;;;;;;7.65;5.97;;;20.30;99.90;;;;;;5044600;28;20394;-80
2023/07/12 03:31:01;;;;;;;8.10;5.70;;;20.40;99.90;;;;;;5036691;28;20462;-80
2023/07/12 03:33:27;;;;;;;8.98;5.97;;;20.50;99.90;;;;;;5037101;28;20391;-80
2023/07/12 03:35:53;;;;;;;7.13;5.88;;;20.60;99.90;;;;;;5055161;28;20405;-80
2023/07/12 03:38:18;;;;;;;10.25;6.10;;;20.40;99.90;;;;;;5056505;28;20393;-80
2023/07/12 03:40:45;;;;;;;8.30;5.80;;;21.80;99.90;;;;;;5055375;28;20393;-80
2023/07/12 03:43:11;;;;;;;6.53;5.90;;;20.50;99.90;;;;;;5055916;28;20918;-80
2023/07/12 03:45:36;;;;;;;7.53;6.30;;;20.50;99.90;;;;;;5038096;28;20426;-79
2023/07/12 03:48:02;;;;;;;6.70;5.97;;;20.50;99.90;;;;;;5052181;28;20484;-80
2023/07/12 03:50:28;;;;;;;6.85;5.95;;;20.50;99.90;;;;;;5060372;28;20389;-79
2023/07/12 03:52:53;;;;;;;9.10;6.97;;;21.50;99.90;;;;;;5059386;28;20756;-79
2023/07/12 03:55:19;;;;;;;6.73;6.10;;;22.30;99.90;;;;;;5056129;28;20405;-80
2023/07/12 03:57:44;;;;;;;8.20;6.20;;;20.70;99.90;;;;;;5045308;28;20489;-80
2023/07/12 04:00:12;;;;;;;8.23;6.53;;;20.60;99.90;;;;;;5034417;28;20387;-79
2023/07/12 04:02:40;;;;;;;7.28;6.60;;;20.70;99.90;;;;;;5057595;28;20427;-79
2023/07/12 04:05:06;;;;;;;7.97;7.20;;;20.80;99.90;;;;;;5057326;28;20433;-79
2023/07/12 04:07:32;;;;;;;7.30;6.60;;;21.30;99.90;;;;;;5057055;28;20451;-79
2023/07/12 04:09:57;;;;;;;7.30;6.60;;;21.70;99.90;;;;;;5052777;28;20396;-79
2023/07/12 04:12:23;;;;;;;7.57;6.30;;;22.00;99.90;;;;;;5037824;28;20823;-79
2023/07/12 04:14:48;;;;;;;8.50;7.10;;;23.10;99.90;;;;;;5031266;28;20398;-80
2023/07/12 04:17:14;;;;;;;7.50;6.70;;;22.30;99.90;;;;;;5032802;28;20527;-80
2023/07/12 04:19:40;;;;;;;7.33;6.40;;;22.30;99.90;;;;;;5035891;28;20401;-79
2023/07/12 04:22:05;;;;;;;9.83;6.70;;;22.30;99.90;;;;;;5052849;28;20439;-79
2023/07/12 04:24:31;;;;;;;8.40;6.50;;;22.30;99.90;;;;;;5053184;28;20435;-79
2023/07/12 04:26:59;;;;;;;9.07;6.43;;;22.20;99.90;;;;;;5051472;28;20381;-79
2023/07/12 04:29:25;;;;;;;9.05;6.00;;;22.40;99.90;;;;;;5034793;28;20387;-78
2023/07/12 04:31:50;;;;;;;7.63;6.82;;;22.50;99.90;;;;;;5050967;28;20385;-78
2023/07/12 04:34:16;;;;;;;7.68;6.88;;;22.50;99.90;;;;;;5051950;28;21023;-79
2023/07/12 04:36:42;;;;;;;7.67;6.20;;;22.60;99.90;;;;;;5036280;28;20410;-78
2023/07/12 04:39:08;;;;;;;7.00;6.30;;;22.50;99.90;;;;;;5033323;28;20397;-79
2023/07/12 04:41:33;;;;;;;6.83;6.20;;;22.60;99.90;;;;;;5032824;28;20391;-80
2023/07/12 04:44:01;;;;;;;7.63;6.13;;;22.60;99.90;;;;;;5036319;28;20470;-79
2023/07/12 04:46:27;;;;;;;6.40;5.80;;;22.70;99.90;;;;;;5047199;28;20393;-79
2023/07/12 04:48:52;;;;;;;6.57;5.88;;;22.50;99.90;;;;;;5053420;28;20385;-80
2023/07/12 04:51:19;;;;;;;6.50;5.90;;;22.50;99.90;;;;;;5043232;28;20391;-78
2023/07/12 04:53:47;;;;;;;6.22;5.63;;;22.60;99.90;;;;;;5031710;28;20891;-79
2023/07/12 04:56:14;;;;;;;7.60;5.43;;;22.50;99.90;;;;;;5032360;28;20414;-79
2023/07/12 04:58:40;;;;;;;6.50;5.85;;;22.60;99.90;;;;;;5032719;28;20391;-80
2023/07/12 05:01:05;;;;;;;6.85;5.88;;;22.60;99.90;;;;;;5036529;28;20435;-79
2023/07/12 05:03:31;;;;;;;6.60;5.50;;;22.60;99.90;;;;;;5052233;28;20955;-79
2023/07/12 05:05:58;;;;;;;6.80;6.20;;;22.50;99.90;;;;;;5054672;28;20535;-79
2023/07/12 05:08:23;;;;;;;6.63;5.63;;;22.50;99.90;;;;;;5055091;28;20441;-79
2023/07/12 05:10:49;;;;;;;5.75;5.22;;;22.60;99.90;;;;;;5052296;28;20395;-79
2023/07/12 05:13:15;;;;;;;6.30;5.70;;;22.60;99.90;;;;;;5035391;28;20787;-80
2023/07/12 05:15:40;;;;;;;6.80;5.90;;;22.60;99.90;;;;;;5053734;28;20902;-80
2023/07/12 05:18:06;;;;;;;6.30;5.70;;;22.60;99.90;;;;;;5055668;28;20740;-80
2023/07/12 05:20:32;;;;;;;7.53;5.63;;;22.80;99.90;;;;;;5055819;28;20383;-80
2023/07/12 05:22:58;;;;;;;7.95;6.05;;;22.80;99.90;;;;;;5048348;28;20391;-80
2023/07/12 05:25:23;;;;;;;6.80;5.67;;;22.80;99.90;;;;;;5035650;28;20789;-80
2023/07/12 05:27:49;;;;;;;7.70;5.85;;;22.80;99.90;;;;;;5041537;28;20393;-79
2023/07/12 05:30:14;;;;;;;7.50;5.47;;;22.80;99.90;;;;;;5055663;28;20397;-81
2023/07/12 05:32:40;;;;;;;8.45;5.65;;;22.80;99.90;;;;;;5055765;28;20556;-79
2023/07/12 05:35:06;;;;;;;5.78;5.28;;;22.90;99.90;;;;;;5042312;28;20405;-79
2023/07/12 05:37:32;;;;;;;7.00;5.30;;;23.00;99.90;;;;;;5039675;28;20383;-80
2023/07/12 05:39:58;;;;;;;7.43;5.80;;;22.90;99.90;;;;;;5044984;28;20390;-80
2023/07/12 05:42:23;;;;;;;5.80;5.30;;;22.90;99.90;;;;;;5056113;28;20373;-79
2023/07/12 05:44:49;;;;;;;6.03;5.20;;;22.90;99.90;;;;;;5056358;28;20435;-78
2023/07/12 05:47:15;;;;;;;5.90;5.17;;;23.00;99.90;;;;;;5051661;28;20401;-79
2023/07/12 05:49:41;;;;;;;6.07;5.10;;;23.00;99.90;;;;;;5036220;28;20398;-81
2023/07/12 05:52:07;;;;;;;6.15;5.25;;;23.00;99.90;;;;;;5034302;28;20449;-79
2023/07/12 05:54:32;;;;;;;6.73;5.53;;;23.20;99.90;;;;;;5034601;28;20904;-79
2023/07/12 05:56:58;;;;;;;8.07;5.95;;;23.20;99.90;;;;;;5034682;28;20896;-79
2023/07/12 05:59:23;;;;;;;5.73;5.13;;;23.20;99.90;;;;;;5034986;28;20391;-79
2023/07/12 06:01:49;;;;;;;6.95;5.32;;;23.10;99.90;;;;;;5034410;28;20383;-81
2023/07/12 06:04:15;;;;;;;7.70;5.45;;;23.10;99.90;;;;;;5050362;28;21050;-80
2023/07/12 06:06:40;;;;;;;6.13;5.37;;;23.10;99.90;;;;;;5041642;22;20526;-77
2023/07/12 06:09:07;;;;;;;6.20;5.60;;;23.10;99.90;;;;;;5029157;28;20387;-81
2023/07/12 06:11:33;;;;;;;5.90;5.30;;;23.10;99.90;;;;;;5010052;28;20396;-78
2023/07/12 06:13:58;;;;;;;6.35;5.65;;;23.30;99.90;;;;;;5016289;28;21218;-79
2023/07/12 06:16:24;;;;;;;7.20;5.77;;;23.20;99.90;;;;;;5020022;28;20412;-79
2023/07/12 06:18:49;;;;;;;7.78;5.05;;;23.10;99.90;;;;;;5014280;28;20385;-80
2023/07/12 06:21:15;;;;;;;6.43;5.00;;;23.30;99.90;;;;;;5013488;28;20381;-79
2023/07/12 06:23:42;;;;;;;8.93;5.68;;;23.30;99.90;;;;;;5014193;28;20387;-79
2023/07/12 06:26:07;;;;;;;7.30;5.10;;;23.40;99.90;;;;;;5016290;28;20384;-79
2023/07/12 06:28:33;;;;;;;6.70;5.20;;;23.30;99.90;;;;;;5015344;28;20828;-79
2023/07/12 06:31:01;;;;;;;7.13;4.90;;;23.40;99.90;;;;;;5003971;28;20411;-80
2023/07/12 06:33:27;;;;;;;7.82;5.50;;;23.40;99.90;;;;;;5007545;28;20399;-81
2023/07/12 06:35:52;;;;;;;7.60;5.10;;;23.40;99.90;;;;;;5005197;28;20493;-81
2023/07/12 06:38:18;;;;;;;10.55;5.78;;;23.30;99.90;;;;;;5004415;28;20924;-79
2023/07/12 06:40:45;;;;;;;5.90;5.27;;;23.40;99.90;;;;;;5000307;28;20387;-80
2023/07/12 06:43:12;;;;;;;5.85;5.10;;;23.40;99.90;;;;;;4998576;28;20523;-81
2023/07/12 06:45:37;;;;;;;7.28;5.85;;;23.30;99.90;;;;;;4980507;28;20753;-79
2023/07/12 06:48:03;;;;;;;7.43;5.17;;;23.30;99.90;;;;;;4996117;28;20406;-79
2023/07/12 06:50:29;;;;;;;7.38;5.75;;;23.30;99.90;;;;;;5020231;28;20492;-79
2023/07/12 06:52:54;;;;;;;6.10;5.50;;;23.40;99.90;;;;;;5018902;28;20430;-80
2023/07/12 06:55:20;;;;;;;6.03;5.30;;;23.40;99.90;;;;;;5036234;28;20474;-82
2023/07/12 06:57:45;;;;;;;6.20;5.60;;;23.50;99.90;;;;;;5008389;28;21091;-81
2023/07/12 07:00:12;;;;;;;7.80;5.47;;;23.30;99.90;;;;;;4996782;28;20931;-82
2023/07/12 07:02:38;;;;;;;7.10;5.60;;;23.40;99.90;;;;;;5012812;28;20411;-80
2023/07/12 07:05:04;;;;;;;6.00;5.40;;;23.40;99.90;;;;;;5010918;28;20895;-82
2023/07/12 07:07:30;;;;;;;5.95;5.05;;;23.40;99.90;;;;;;4994362;28;20419;-81
2023/07/12 07:09:55;;;;;;;6.63;5.88;;;23.40;99.90;;;;;;5028824;28;20406;-80
2023/07/12 07:12:21;;;;;;;7.67;5.60;;;23.50;99.90;;;;;;5014680;28;20401;-81
2023/07/12 07:14:47;;;;;;;6.15;5.13;;;23.60;99.90;;;;;;5016384;28;20396;-81
2023/07/12 07:17:12;;;;;;;7.23;5.30;;;23.80;99.90;;;;;;5053541;28;20396;-79
2023/07/12 07:19:38;;;;;;;5.60;5.10;;;23.90;99.90;;;;;;5054011;28;20502;-79
2023/07/12 07:22:04;;;;;;;7.63;5.10;;;23.90;99.90;;;;;;5023871;28;20436;-80
2023/07/12 07:24:30;;;;;;;5.70;5.20;;;23.90;99.90;;;;;;5034442;28;20425;-80
2023/07/12 07:26:55;;;;;;;8.10;5.90;;;23.90;99.90;;;;;;5019015;28;20829;-81
2023/07/12 07:29:21;;;;;;;6.95;5.50;;;24.10;99.90;;;;;;5033590;28;20398;-82
2023/07/12 07:31:47;;;;;;;10.30;5.77;;;24.30;99.90;;;;;;5017977;28;20414;-81
2023/07/12 07:34:14;;;;;;;5.78;5.18;;;24.30;99.90;;;;;;5020839;28;20404;-80
2023/07/12 07:36:40;;;;;;;6.97;5.80;;;24.20;99.90;;;;;;5030701;28;20404;-80
2023/07/12 07:39:06;;;;;;;7.85;5.20;;;24.20;99.90;;;;;;5011261;28;20395;-81
2023/07/12 07:41:31;;;;;;;5.10;4.60;;;24.30;99.90;;;;;;5034344;28;20875;-81
2023/07/12 07:43:57;;;;;;;7.82;4.95;;;24.10;99.90;;;;;;5033571;28;20395;-78
2023/07/12 07:46:22;;;;;;;5.73;5.13;;;24.00;99.90;;;;;;5033528;28;21189;-81
2023/07/12 07:48:48;;;;;;;5.85;5.05;;;24.00;99.90;;;;;;5015340;28;20445;-80
2023/07/12 07:51:14;;;;;;;7.80;5.03;;;24.00;99.90;;;;;;4996573;28;20389;-80
2023/07/12 07:53:40;;;;;;;5.93;4.73;;;24.10;99.90;;;;;;5013291;28;20384;-80
2023/07/12 07:56:06;;;;;;;5.30;4.32;;;24.20;99.90;;;;;;4995913;28;20484;-81
2023/07/12 07:58:31;;;;;;;5.30;4.80;;;24.10;99.90;;;;;;5026173;28;20888;-80
2023/07/12 08:00:57;;;;;;;7.00;4.83;;;24.10;99.90;;;;;;5033303;28;20383;-81
2023/07/12 08:03:22;;;;;;;8.52;5.07;;;24.00;99.90;;;;;;5033825;28;20832;-80
2023/07/12 08:05:48;;;;;;;11.80;5.00;;;24.10;99.90;;;;;;5033288;28;20427;-81
2023/07/12 08:08:15;;;;;;;5.50;4.25;;;24.20;99.90;;;;;;5033334;28;20427;-81
2023/07/12 08:10:41;;;;;;;7.30;4.47;;;24.40;99.90;;;;;;5032152;28;20922;-81
2023/07/12 08:13:07;;;;;;;5.93;4.30;;;24.40;99.90;;;;;;5032286;28;20482;-81
2023/07/12 08:15:34;;;;;;;6.20;4.55;;;24.50;99.90;;;;;;5025374;28;20416;-81
2023/07/12 08:17:59;;;;;;;6.22;5.00;;;24.70;99.90;;;;;;5013678;28;20461;-81
2023/07/12 08:20:25;;;;;;;7.07;4.20;;;24.90;99.90;;;;;;4996930;28;20464;-80
2023/07/12 08:22:52;;;;;;;4.60;4.20;;;25.00;99.90;;;;;;5039615;28;20387;-80
2023/07/12 08:25:18;;;;;;;5.50;3.72;;;25.00;99.90;;;;;;5022703;28;20777;-81
2023/07/12 08:27:44;;;;;;;5.20;4.23;;;24.90;99.90;;;;;;5014588;28;20402;-81
2023/07/12 08:30:13;;;;;;;6.30;4.20;;;24.80;99.90;;;;;;5024864;28;20394;-81
2023/07/12 08:32:39;;;;;;;5.45;4.10;;;24.80;99.90;;;;;;5017731;28;20410;-80
2023/07/12 08:35:05;;;;;;;4.93;4.40;;;24.80;99.90;;;;;;5018780;28;20407;-82
2023/07/12 08:37:31;;;;;;;5.60;4.25;;;24.90;99.90;;;;;;5026835;28;20383;-80
2023/07/12 08:39:57;;;;;;;6.72;3.80;;;25.10;99.90;;;;;;5028374;28;20390;-80
2023/07/12 08:42:37;;;;;;;5.70;3.60;;;25.10;99.90;;;;;;5028528;28;20398;-80
2023/07/12 08:45:25;;;;;;;4.65;4.20;;;25.10;99.90;;;;;;5029549;28;20391;-83
2023/07/12 08:47:57;;;;;;;4.78;3.70;;;25.00;99.90;;;;;;5024343;28;20475;-80
2023/07/12 08:50:23;;;;;;;7.35;4.35;;;25.00;99.90;;;;;;5022465;28;20408;-79
2023/07/12 08:52:49;;;;;;;4.43;4.03;;;25.10;99.90;;;;;;5019535;28;20450;-79
2023/07/12 08:55:21;;;;;;;5.30;3.40;;;25.20;99.90;;;;;;5027800;28;20421;-81
2023/07/12 08:57:56;;;;;;;4.43;3.65;;;25.20;99.90;;;;;;5000574;28;20388;-80
2023/07/12 09:00:24;;;;;;;5.90;3.80;;;25.20;99.90;;;;;;5016352;28;20424;-80
2023/07/12 09:02:49;;;;;;;4.38;3.50;;;25.10;99.90;;;;;;5013687;28;20462;-80
2023/07/12 09:05:18;;;;;;;4.78;3.80;;;25.10;99.90;;;;;;5026314;28;20478;-79
2023/07/12 09:08:08;;;;;;;3.67;3.38;;;25.10;99.90;;;;;;5027598;28;20404;-80
2023/07/12 09:10:46;;;;;;;4.60;4.00;;;25.20;99.90;;;;;;5019192;28;20888;-80
2023/07/12 09:13:14;;;;;;;6.65;3.10;;;25.40;99.90;;;;;;5036949;28;20470;-80
2023/07/12 09:15:50;;;;;;;4.15;3.33;;;25.40;99.90;;;;;;5002508;28;20491;-80
2023/07/12 09:18:36;;;;;;;3.92;3.53;;;25.30;99.90;;;;;;5013014;28;20760;-81
2023/07/12 09:21:41;;;;;;;4.07;3.20;;;25.50;99.90;;;;;;5018643;28;20467;-80
2023/07/12 09:24:12;;;;;;;5.53;3.80;;;25.70;99.90;;;;;;5010910;28;20379;-80
2023/07/12 09:26:38;;;;;;;4.45;3.67;;;25.60;99.90;;;;;;5020763;28;20764;-80
2023/07/12 09:29:18;;;;;;;4.65;3.67;;;25.50;99.90;;;;;;5014607;28;20391;-80
2023/07/12 09:31:45;;;;;;;4.50;3.20;;;25.50;99.90;;;;;;5032172;28;20375;-81
2023/07/12 09:34:24;;;;;;;4.15;3.60;;;25.60;99.90;;;;;;5043028;28;20419;-79
2023/07/12 09:36:56;;;;;;;3.72;3.22;;;25.60;99.90;;;;;;5036272;28;20437;-79
2023/07/12 09:39:21;;;;;;;6.23;4.23;;;25.70;99.90;;;;;;5016039;28;20475;-80
2023/07/12 09:41:50;;;;;;;5.10;3.70;;;25.70;99.90;;;;;;5013864;28;20980;-80
2023/07/12 09:44:16;;;;;;;4.27;3.50;;;25.60;99.90;;;;;;5014588;28;20412;-80
2023/07/12 09:46:57;;;;;;;6.90;3.80;;;25.50;99.90;;;;;;4997071;28;20397;-80
2023/07/12 09:49:55;;;;;;;3.60;3.03;;;25.70;99.90;;;;;;4996403;28;20385;-80
2023/07/12 09:52:25;;;;;;;4.45;3.88;;;25.70;99.90;;;;;;4998288;28;20427;-80
2023/07/12 09:55:15;;;;;;;4.60;3.28;;;25.80;99.90;;;;;;5027238;28;20389;-80
2023/07/12 09:57:50;;;;;;;5.80;3.63;;;25.90;99.90;;;;;;5018403;28;20444;-80
2023/07/12 10:00:56;;;;;;;5.50;3.92;;;26.00;99.90;;;;;;5019506;28;20447;-80
2023/07/12 10:03:44;;;;;;;4.65;4.22;;;26.00;99.90;;;;;;5020684;28;20381;-78
2023/07/12 10:06:15;;;;;;;5.70;4.40;;;26.00;99.90;;;;;;5024197;28;20411;-81
2023/07/12 10:09:26;;;;;;;5.00;4.18;;;26.00;99.90;;;;;;5015678;28;20818;-81
2023/07/12 10:12:02;;;;;;;4.60;4.20;;;26.10;99.90;;;;;;5015652;28;20388;-80
2023/07/12 10:14:35;;;;;;;7.60;3.97;;;26.20;99.90;;;;;;5013219;28;20395;-80
2023/07/12 10:17:02;;;;;;;6.43;3.88;;;26.20;99.90;;;;;;5021472;28;20404;-80
2023/07/12 10:19:36;;;;;;;6.05;4.15;;;26.20;99.90;;;;;;4998741;28;20395;-80
2023/07/12 10:22:05;;;;;;;4.55;4.10;;;26.00;99.90;;;;;;5019773;28;20395;-81
2023/07/12 10:24:42;;;;;;;7.43;4.20;;;26.00;99.90;;;;;;5019825;28;20974;-80
2023/07/12 10:27:28;;;;;;;6.25;4.10;;;26.20;99.90;;;;;;5018935;28;20393;-79
2023/07/12 10:30:19;;;;;;;4.57;4.18;;;26.50;99.90;;;;;;5036547;28;20406;-81
2023/07/12 10:32:53;;;;;;;4.40;4.00;;;26.40;99.90;;;;;;5023832;28;20385;-81
2023/07/12 10:35:34;;;;;;;4.57;4.18;;;26.20;99.90;;;;;;5015628;28;20440;-81
2023/07/12 10:38:03;;;;;;;5.97;4.10;;;26.50;99.90;;;;;;5018548;28;20407;-80
2023/07/12 10:40:44;;;;;;;4.25;3.40;;;26.50;99.90;;;;;;5039691;28;20441;-79
2023/07/12 10:43:19;;;;;;;3.77;3.37;;;26.60;99.90;;;;;;5040404;28;20395;-83
2023/07/12 10:45:49;;;;;;;7.30;3.90;;;26.70;99.90;;;;;;5026650;28;20450;-81
2023/07/12 10:48:22;;;;;;;4.85;3.00;;;26.70;99.90;;;;;;5022959;28;20392;-80
2023/07/12 10:50:49;;;;;;;4.95;3.30;;;26.70;99.90;;;;;;5020612;28;20422;-81
2023/07/12 10:53:24;;;;;;;5.32;3.67;;;26.80;99.90;;;;;;5022988;28;20387;-80
2023/07/12 10:56:10;;;;;;;5.20;3.55;;;26.90;99.90;;;;;;5039789;28;20423;-80
2023/07/12 10:58:50;;;;;;;5.82;2.90;;;26.80;99.90;;;;;;5022417;28;20391;-80
2023/07/12 11:01:41;;;;;;;3.60;3.30;;;26.50;99.90;;;;;;5021484;28;20508;-80
2023/07/12 11:04:32;;;;;;;4.20;3.60;;;26.40;99.90;;;;;;5039951;28;20394;-80
2023/07/12 11:07:25;;;;;;;3.88;3.47;;;26.40;99.90;;;;;;5040324;28;20399;-81
2023/07/12 11:09:51;;;;;;;5.10;3.60;;;26.50;99.90;;;;;;5008563;28;20459;-83
2023/07/12 11:12:27;;;;;;;4.37;3.50;;;26.90;99.90;;;;;;5022073;28;20392;-81
2023/07/12 11:15:04;;;;;;;3.90;3.00;;;27.10;99.90;;;;;;5022083;28;20492;-82
2023/07/12 11:17:49;;;;;;;3.80;3.40;;;27.00;99.90;;;;;;5020633;28;20373;-80
2023/07/12 11:20:30;;;;;;;6.20;3.53;;;26.80;99.90;;;;;;5026257;28;20393;-79
2023/07/12 11:23:01;;;;;;;3.78;3.20;;;26.90;99.90;;;;;;5024098;28;20408;-79
2023/07/12 11:25:48;;;;;;;4.80;2.90;;;27.10;99.90;;;;;;5022268;28;20450;-81
2023/07/12 11:28:20;;;;;;;5.18;3.22;;;27.20;99.90;;;;;;5027656;28;20414;-82
2023/07/12 11:30:45;;;;;;;4.07;3.28;;;27.20;99.90;;;;;;5032082;28;20402;-78
2023/07/12 11:33:26;;;;;;;6.90;3.40;;;27.70;99.90;;;;;;5040193;28;20383;-78
2023/07/12 11:35:55;;;;;;;5.70;3.45;;;28.00;99.90;;;;;;5036422;28;20955;-79
2023/07/12 11:38:27;;;;;;;4.15;3.25;;;27.70;99.90;;;;;;5016354;28;20385;-79
2023/07/12 11:40:55;;;;;;;4.35;3.70;;;27.40;99.90;;;;;;4997942;28;20404;-79
2023/07/12 11:43:23;;;;;;;3.95;3.55;;;27.10;99.90;;;;;;5015101;28;20396;-80
2023/07/12 11:45:50;;;;;;;4.45;3.72;;;26.70;99.90;;;;;;5014070;28;20377;-79
2023/07/12 11:48:15;;;;;;;4.43;3.70;;;26.50;99.90;;;;;;5014759;28;20420;-80
2023/07/12 11:50:41;;;;;;;4.07;3.60;;;26.50;99.90;;;;;;4996668;28;20419;-79
2023/07/12 11:53:10;;;;;;;4.13;3.73;;;26.50;99.90;;;;;;5013667;28;20400;-80
2023/07/12 11:55:36;;;;;;;5.60;4.00;;;26.40;99.90;;;;;;4999996;28;20434;-80
2023/07/12 11:58:01;;;;;;;3.90;3.50;;;26.40;99.90;;;;;;5015695;28;20422;-81
2023/07/12 12:00:29;;;;;;;4.10;3.60;;;26.40;99.90;;;;;;5015457;28;20508;-80
2023/07/12 12:02:57;;;;;;;4.40;4.00;;;26.50;99.90;;;;;;5034089;28;20387;-79
2023/07/12 12:05:31;;;;;;;5.78;4.10;;;26.20;99.90;;;;;;5052501;22;20408;-83
2023/07/12 12:07:57;;;;;;;5.88;4.10;;;26.20;99.90;;;;;;5013608;28;20395;-83
2023/07/12 12:10:29;;;;;;;5.43;3.92;;;26.30;99.90;;;;;;5012843;28;20793;-83
2023/07/12 12:12:54;;;;;;;4.57;3.90;;;26.40;99.90;;;;;;5031983;28;20737;-83
2023/07/12 12:15:22;;;;;;;3.80;3.40;;;26.30;99.90;;;;;;5013918;28;20477;-83
2023/07/12 12:17:50;;;;;;;4.20;3.80;;;26.40;99.90;;;;;;5013561;28;20435;-84
2023/07/12 12:20:28;;;;;;;4.43;3.75;;;26.50;99.90;;;;;;4994555;28;20385;-83
2023/07/12 12:22:57;;;;;;;8.15;4.57;;;26.50;99.90;;;;;;5028817;28;20410;-82
2023/07/12 12:25:25;;;;;;;4.20;3.80;;;26.60;99.90;;;;;;5009859;28;20389;-82
2023/07/12 12:27:51;;;;;;;5.03;4.22;;;26.50;99.90;;;;;;4994193;28;20476;-83
2023/07/12 12:30:24;;;;;;;6.88;3.85;;;26.60;99.90;;;;;;5038254;28;20402;-82
2023/07/12 12:33:00;;;;;;;4.72;3.90;;;26.50;99.90;;;;;;5038790;28;20392;-82
2023/07/12 12:35:26;;;;;;;5.70;3.92;;;26.40;99.90;;;;;;5032982;28;20415;-81
2023/07/12 12:38:22;;;;;;;4.03;3.72;;;26.40;99.90;;;;;;5015919;28;20416;-82
2023/07/12 12:41:12;;;;;;;4.93;3.70;;;26.40;99.90;;;;;;5025588;28;20447;-84
2023/07/12 12:44:16;;;;;;;4.00;3.60;;;26.60;99.90;;;;;;5005962;28;20476;-82
2023/07/12 12:46:43;;;;;;;4.07;3.67;;;26.70;99.90;;;;;;5021948;28;20406;-82
2023/07/12 12:49:36;;;;;;;5.13;3.67;;;26.50;99.90;;;;;;5014169;28;20394;-83
2023/07/12 12:52:36;;;;;;;4.63;3.83;;;26.40;99.90;;;;;;5029060;28;20450;-82
2023/07/12 12:55:08;;;;;;;4.53;3.55;;;26.60;99.90;;;;;;5012066;28;20881;-83
2023/07/12 12:57:35;;;;;;;3.75;3.45;;;26.80;99.90;;;;;;5011148;28;20400;-83